أريحا, الأردن

06:08 PM EEST on أمتèبر 21, 2014 (GMT +0300)
Ben Gurion | Change Station
CLOSE
Current Station
Airport
Location: Tel Aviv,
Elevation: 161 ft
Nearby Weather Stations

Elev 161 ft 32.01 °N, 34.89 °E | Updated 18 minutes ago

Clear
صافية
75 °F
Feels Like 75 °F
N
10
ريح متغير ريح from NNW

هذا اليوم
High -- | Low -- °F
--% Chance of Precip.
Yesterday
High -- | Low -- °F
Precip. -- في
6:45 AM 5:59 PM
الهلال الأخير, 5% visible
الضغط 29.98 في
وضوح الرؤية -9999.0 أميال
سحابات
نقطة الندى 54 °F
الرطوبة 47%
Rainfall 0.00 في
عمق الثلج Not available.
الأشعة فوق البنفسجية Not available.
Pollen Not available.
جودة الهواء Not available.
Flu Activity Not available.
METAR LLBG 211450Z 33009KT CAVOK 24/12 Q1015 NOSIG

More Conditions Fewer Conditions

الضغط 29.98 في
وضوح الرؤية -9999.0 أميال
سحابات
نقطة الندى 54 °F
الرطوبة 47%
Rainfall 0.00 في
عمق الثلج Not available.
الأشعة فوق البنفسجية Not available.
Pollen Not available.
جودة الهواء Not available.
Flu Activity Not available.
METAR LLBG 211450Z 33009KT CAVOK 24/12 Q1015 NOSIG

More Conditions Fewer Conditions

10-Day Weather Forecast

Almanac

علم الفلك

Oct. 21, 2014 Rise Set
Actual Time 6:45 AM EEST 5:59 PM EEST
Civil Twilight 6:20 AM EEST 6:24 PM EEST
Nautical Twilight 5:52 AM EEST 6:52 PM EEST
Astronomical Twilight 5:23 AM EEST 7:20 PM EEST
قمر 4:19 AM EEST 4:35 PM EEST
Length Of Visible Light 12h 03m
طول الیوم
11h 13m
Tomorrow will be 1m 49s shorter.
الهلال الأخير, 5% of the Moon is Illuminated
هذا اليوم
الهلال الأخير
Oct 23
New
Oct 30
الربع الاول
Nov 6
بدر
Nov 14
الربع الآخر

Today's Extremes

Country Highs Country Lows

Community

WunderPhotos

Upload Photos

1,763,682 photos uploaded!

WunderBlogs® & News

By Dr. Jeff Masters
Director of Meteorology, Weather Underground
By Kari Strenfel
Meteorologist, Weather Underground
By Christopher C. Burt
Weather Historian, Weather Underground
October 21, 2014
October 21, 2014
October 21, 2014

Nearby

جودة الهواء

Not available.

عمق الثلج

Not available.

Earthquake Activity

City Distance Mag. Time & Date
No recent earthquake activity has been reported nearby.
Minimum magnitude displayed is 2.5.

Coastal Water Temperatures

مكان درجات الحرارة
No Stations Reporting

Nearby Weather Stations